createdAt,value
2018-07-08T00:03:13.182Z,14.73
2018-07-08T00:08:15.883Z,17.93
2018-07-08T00:13:18.946Z,15.97
2018-07-08T00:18:22.891Z,14.70
2018-07-08T00:23:25.578Z,15.60
2018-07-08T00:28:28.256Z,16.83
2018-07-08T00:33:30.926Z,15.93
2018-07-08T00:38:34.247Z,16.03
2018-07-08T00:43:36.851Z,16.50
2018-07-08T00:48:39.487Z,16.67
2018-07-08T00:53:42.107Z,16.13
2018-07-08T00:58:44.723Z,17.27
2018-07-08T01:03:47.450Z,17.50
2018-07-08T01:08:50.077Z,18.50
2018-07-08T01:13:52.902Z,17.47
2018-07-08T01:18:56.187Z,17.90
2018-07-08T01:23:58.834Z,17.17
2018-07-08T01:29:01.523Z,18.63
2018-07-08T01:34:04.275Z,22.13
2018-07-08T01:39:07.133Z,18.47
2018-07-08T01:44:09.767Z,18.23
2018-07-08T01:49:12.453Z,18.60
2018-07-08T01:54:15.258Z,18.37
2018-07-08T01:59:18.112Z,20.10
2018-07-08T02:04:20.831Z,19.53
2018-07-08T02:09:23.550Z,19.93
2018-07-08T02:14:26.258Z,26.23
2018-07-08T02:19:29.472Z,20.43
2018-07-08T02:24:32.188Z,20.37
2018-07-08T02:29:35.949Z,21.23
2018-07-08T02:34:38.676Z,20.50
2018-07-08T02:39:41.383Z,20.80
2018-07-08T02:44:44.182Z,21.40
2018-07-08T02:49:47.167Z,20.00
2018-07-08T02:54:49.850Z,19.60
2018-07-08T02:59:52.495Z,20.20
2018-07-08T03:04:55.089Z,19.20
2018-07-08T03:09:57.707Z,23.27
2018-07-08T03:15:00.315Z,19.17
2018-07-08T03:20:02.975Z,17.90
2018-07-08T03:25:05.661Z,17.57
2018-07-08T03:30:08.356Z,18.90
2018-07-08T03:35:11.323Z,16.47
2018-07-08T03:40:13.935Z,18.40
2018-07-08T03:45:16.489Z,15.43
2018-07-08T03:50:19.078Z,16.67
2018-07-08T03:55:21.727Z,17.30
2018-07-08T04:00:24.358Z,19.43
2018-07-08T04:05:27.023Z,16.03
2018-07-08T04:10:29.686Z,15.57
2018-07-08T04:15:32.333Z,15.60
2018-07-08T04:20:35.795Z,16.90
2018-07-08T04:25:38.994Z,15.67
2018-07-08T04:30:41.648Z,17.67
2018-07-08T04:35:44.275Z,16.30
2018-07-08T04:40:46.872Z,14.37
2018-07-08T04:45:49.492Z,13.93
2018-07-08T04:50:52.118Z,13.53
2018-07-08T04:55:54.718Z,14.50
2018-07-08T05:00:57.400Z,13.93
2018-07-08T05:06:00.037Z,12.23
2018-07-08T05:11:02.654Z,13.40
2018-07-08T05:16:05.483Z,12.73
2018-07-08T05:21:08.864Z,12.77
2018-07-08T05:26:11.574Z,12.13
2018-07-08T05:31:14.080Z,12.07
2018-07-08T05:36:16.763Z,11.50
2018-07-08T05:41:19.463Z,14.57
2018-07-08T05:46:22.114Z,13.77
2018-07-08T05:51:24.804Z,17.10
2018-07-08T05:56:27.968Z,14.33
2018-07-08T06:01:31.687Z,13.80
2018-07-08T06:06:34.303Z,14.43
2018-07-08T06:11:36.944Z,11.53
2018-07-08T06:16:39.555Z,11.37
2018-07-08T06:21:43.035Z,16.07
2018-07-08T06:26:45.672Z,11.37
2018-07-08T06:31:48.430Z,13.20
2018-07-08T06:36:51.033Z,10.10
2018-07-08T06:41:53.659Z,9.10
2018-07-08T06:46:56.284Z,10.90
2018-07-08T06:51:58.986Z,8.93
2018-07-08T06:57:01.606Z,9.43
2018-07-08T07:02:04.246Z,10.83
2018-07-08T07:07:06.942Z,9.33
2018-07-08T07:12:09.714Z,10.37
2018-07-08T07:17:12.546Z,12.47
2018-07-08T07:22:15.183Z,12.37
2018-07-08T07:27:17.812Z,9.20
2018-07-08T07:32:20.455Z,8.73
2018-07-08T07:37:23.167Z,9.37
2018-07-08T07:42:25.790Z,9.90
2018-07-08T07:47:28.398Z,10.90
2018-07-08T07:52:31.055Z,12.40
2018-07-08T07:57:33.654Z,9.70
2018-07-08T08:02:36.516Z,10.37
2018-07-08T08:07:39.128Z,11.20
2018-07-08T08:12:41.802Z,10.73
2018-07-08T08:17:44.433Z,9.07
2018-07-08T08:22:47.204Z,12.93
2018-07-08T08:27:49.958Z,10.43
2018-07-08T08:32:52.637Z,10.50
2018-07-08T08:37:56.302Z,7.87
2018-07-08T08:42:59.970Z,7.53
2018-07-08T08:48:02.586Z,6.90
2018-07-08T08:53:05.531Z,8.40
2018-07-08T08:58:08.258Z,7.07
2018-07-08T09:03:10.921Z,6.00
2018-07-08T09:08:13.700Z,5.53
2018-07-08T09:13:24.690Z,8.73
2018-07-08T09:18:27.911Z,11.30
2018-07-08T09:23:30.534Z,10.37
2018-07-08T09:28:33.162Z,6.27
2018-07-08T09:33:35.827Z,9.23
2018-07-08T09:38:38.584Z,4.83
2018-07-08T09:43:41.275Z,7.30
2018-07-08T09:48:43.888Z,6.00
2018-07-08T09:53:46.549Z,6.23
2018-07-08T09:58:49.471Z,6.73
2018-07-08T10:03:52.128Z,4.23
2018-07-08T10:08:54.744Z,7.30
2018-07-08T10:13:57.579Z,4.40
2018-07-08T10:19:00.130Z,6.17
2018-07-08T10:24:03.027Z,5.20
2018-07-08T10:29:06.392Z,3.33
2018-07-08T10:34:08.992Z,3.17
2018-07-08T10:39:12.706Z,6.27
2018-07-08T10:44:15.326Z,5.10
2018-07-08T10:49:17.939Z,3.77
2018-07-08T10:54:20.611Z,5.57
2018-07-08T10:59:23.196Z,3.10
2018-07-08T11:04:25.956Z,5.20
2018-07-08T11:09:28.615Z,4.27
2018-07-08T11:14:31.876Z,5.80
2018-07-08T11:19:34.498Z,3.17
2018-07-08T11:24:37.359Z,3.52
2018-07-08T11:29:40.192Z,3.07
2018-07-08T11:34:46.743Z,6.47
2018-07-08T11:39:49.380Z,2.30
2018-07-08T11:44:52.048Z,5.40
2018-07-08T11:49:54.731Z,4.22
2018-07-08T11:54:57.561Z,5.15
2018-07-08T12:00:00.208Z,5.33
2018-07-08T12:05:03.124Z,2.92
2018-07-08T12:10:06.069Z,2.35
2018-07-08T12:15:09.552Z,4.00
2018-07-08T12:20:12.271Z,7.10
2018-07-08T12:25:14.936Z,5.12
2018-07-08T12:30:17.635Z,5.72
2018-07-08T12:35:20.362Z,5.28
2018-07-08T12:40:23.132Z,6.40
2018-07-08T12:45:25.790Z,5.67
2018-07-08T12:50:28.455Z,6.47
2018-07-08T12:55:31.075Z,4.25
2018-07-08T13:00:33.705Z,2.92
2018-07-08T13:05:36.396Z,3.52
2018-07-08T13:10:39.103Z,6.33
2018-07-08T13:15:41.747Z,8.53
2018-07-08T13:20:44.418Z,4.78
2018-07-08T13:25:47.051Z,5.20
2018-07-08T13:30:49.798Z,4.83
2018-07-08T13:35:52.424Z,2.50
2018-07-08T13:40:55.102Z,3.87
2018-07-08T13:45:58.518Z,4.40
2018-07-08T13:51:01.139Z,1.98
2018-07-08T13:56:03.763Z,2.58
2018-07-08T14:01:06.445Z,4.10
2018-07-08T14:06:09.245Z,4.08
2018-07-08T14:11:11.891Z,2.90
2018-07-08T14:16:14.571Z,5.28
2018-07-08T14:21:17.211Z,3.80
2018-07-08T14:26:19.847Z,3.95
2018-07-08T14:31:22.547Z,3.92
2018-07-08T14:36:25.206Z,3.22
2018-07-08T14:41:27.859Z,2.08
2018-07-08T14:46:30.546Z,3.12
2018-07-08T14:51:33.183Z,2.70
2018-07-08T14:56:35.827Z,3.35
2018-07-08T15:01:38.561Z,4.62
2018-07-08T15:06:41.256Z,3.50
2018-07-08T15:11:44.019Z,3.75
2018-07-08T15:16:46.644Z,3.70
2018-07-08T15:21:49.672Z,4.35
2018-07-08T15:26:52.295Z,3.62
2018-07-08T15:31:54.975Z,2.98
2018-07-08T15:36:57.938Z,2.50
2018-07-08T15:42:00.876Z,1.95
2018-07-08T15:47:03.646Z,2.10
2018-07-08T15:52:06.837Z,2.47
2018-07-08T15:57:09.471Z,4.72
2018-07-08T16:02:12.156Z,2.77
2018-07-08T16:07:14.787Z,5.05
2018-07-08T16:12:17.527Z,2.95
2018-07-08T16:17:20.170Z,5.17
2018-07-08T16:22:22.862Z,2.17
2018-07-08T16:27:25.564Z,4.78
2018-07-08T16:32:28.334Z,4.42
2018-07-08T16:37:31.137Z,2.05
2018-07-08T16:42:33.843Z,2.75
2018-07-08T16:47:36.547Z,3.80
2018-07-08T16:52:39.274Z,4.92
2018-07-08T16:57:41.995Z,2.98
2018-07-08T17:02:44.627Z,3.67
2018-07-08T17:07:47.322Z,1.98
2018-07-08T17:12:50.092Z,2.58
2018-07-08T17:17:52.748Z,1.90
2018-07-08T17:22:55.499Z,5.12
2018-07-08T17:27:58.135Z,3.72
2018-07-08T17:33:01.234Z,2.20
2018-07-08T17:38:04.059Z,4.13
2018-07-08T17:43:06.728Z,1.90
2018-07-08T17:48:09.388Z,2.87
2018-07-08T17:53:12.032Z,2.60
2018-07-08T17:58:14.830Z,2.77
2018-07-08T18:03:17.829Z,2.37
2018-07-08T18:08:20.832Z,5.40
2018-07-08T18:13:23.522Z,3.20
2018-07-08T18:18:26.273Z,2.80
2018-07-08T18:23:28.954Z,4.37
2018-07-08T18:28:31.611Z,4.93
2018-07-08T18:33:34.400Z,1.90
2018-07-08T18:38:37.280Z,2.70
2018-07-08T18:43:40.012Z,1.90
2018-07-08T18:48:42.743Z,3.00
2018-07-08T18:53:45.595Z,3.70
2018-07-08T18:58:48.357Z,4.87
2018-07-08T19:03:52.430Z,6.17
2018-07-08T19:08:55.850Z,7.37
2018-07-08T19:13:58.510Z,6.03
2018-07-08T19:19:01.951Z,6.23
2018-07-08T19:24:04.693Z,2.93
2018-07-08T19:29:07.605Z,4.13
2018-07-08T19:34:10.211Z,6.37
2018-07-08T19:39:15.599Z,4.77
2018-07-08T19:44:19.364Z,5.07
2018-07-08T19:49:22.071Z,7.07
2018-07-08T19:54:25.109Z,2.40
2018-07-08T19:59:27.783Z,3.17
2018-07-08T20:04:30.459Z,5.33
2018-07-08T20:09:33.297Z,3.70
2018-07-08T20:14:36.299Z,5.77
2018-07-08T20:19:39.023Z,3.90
2018-07-08T20:24:42.345Z,3.43
2018-07-08T20:29:45.021Z,3.47
2018-07-08T20:34:47.667Z,3.63
2018-07-08T20:39:50.416Z,3.17
2018-07-08T20:44:53.331Z,3.23
2018-07-08T20:49:56.246Z,5.63
2018-07-08T20:55:00.021Z,2.03
2018-07-08T21:00:02.776Z,3.30
2018-07-08T21:05:05.523Z,1.90
2018-07-08T21:10:08.432Z,4.70
2018-07-08T21:15:11.100Z,3.23
2018-07-08T21:20:14.199Z,1.90
2018-07-08T21:25:16.879Z,2.53
2018-07-08T21:30:19.588Z,3.83
2018-07-08T21:35:22.324Z,3.63
2018-07-08T21:40:25.013Z,1.93
2018-07-08T21:45:27.724Z,3.37
2018-07-08T21:50:30.437Z,2.10
2018-07-08T21:55:33.227Z,3.30
2018-07-08T22:00:41.879Z,2.03
2018-07-08T22:05:44.550Z,3.00
2018-07-08T22:10:47.174Z,2.27
2018-07-08T22:15:49.799Z,4.83
2018-07-08T22:20:52.484Z,1.93
2018-07-08T22:25:55.188Z,3.97
2018-07-08T22:30:57.864Z,2.60
2018-07-08T22:36:00.487Z,1.80
2018-07-08T22:41:03.155Z,1.47
2018-07-08T22:46:05.857Z,3.87
2018-07-08T22:51:08.534Z,1.73
2018-07-08T22:56:11.179Z,2.17
2018-07-08T23:01:25.380Z,1.23
2018-07-08T23:06:28.046Z,2.33
2018-07-08T23:11:30.664Z,2.97
2018-07-08T23:16:33.327Z,1.87
2018-07-08T23:21:36.121Z,2.10
2018-07-08T23:26:39.463Z,2.47
2018-07-08T23:31:42.209Z,1.20
2018-07-08T23:36:44.960Z,2.53
2018-07-08T23:41:47.664Z,2.20
2018-07-08T23:46:50.275Z,3.13
2018-07-08T23:51:53.221Z,3.30
2018-07-08T23:56:55.875Z,1.83
